Time;durP1;ratioP1;P1;durP2;ratioP2;P2;SDS_P1;SDS_P2;PMS_P1;PMS_P2;Temp;Humidity;BMP_temperature;BMP_pressure;BME280_temperature;BME280_humidity;BME280_pressure;Samples;Min_cycle;Max_cycle;Signal;HPM_P1;HPM_P2
2023/01/12 00:01:38;;;;;;;37.97;14.32;;;;;;;4.47;75.79;98536.22;4968705;28;20027;-71
2023/01/12 00:04:04;;;;;;;25.75;10.27;;;;;;;4.49;76.06;98548.75;4968254;28;20068;-70
2023/01/12 00:06:33;;;;;;;25.35;8.73;;;;;;;4.50;75.87;98544.94;4967657;28;20425;-71
2023/01/12 00:09:01;;;;;;;29.38;10.15;;;;;;;4.53;77.27;98541.72;4967247;28;20027;-70
2023/01/12 00:11:27;;;;;;;24.70;9.43;;;;;;;4.47;76.27;98549.81;4966844;28;20080;-71
2023/01/12 00:13:53;;;;;;;25.15;11.13;;;;;;;4.47;76.19;98551.72;4967919;28;20019;-71
2023/01/12 00:19:16;;;;;;;20.25;9.20;;;;;;;4.45;77.25;98557.41;4977344;28;20062;-71
2023/01/12 00:22:11;;;;;;;16.52;7.95;;;;;;;4.44;77.21;98561.19;4966460;28;20132;-71
2023/01/12 00:24:38;;;;;;;14.55;7.38;;;;;;;4.45;77.07;98551.16;4967233;28;20022;-70
2023/01/12 00:27:09;;;;;;;14.70;7.90;;;;;;;4.45;76.70;98559.31;4966530;28;20525;-71
2023/01/12 00:29:35;;;;;;;16.52;8.05;;;;;;;4.47;76.96;98557.97;4964406;28;20069;-70
2023/01/12 00:32:01;;;;;;;20.35;11.23;;;;;;;4.49;76.91;98559.59;4967763;28;20027;-70
2023/01/12 00:34:27;;;;;;;20.88;12.73;;;;;;;4.49;76.91;98560.41;4972431;28;20023;-71
2023/01/12 00:36:52;;;;;;;21.50;10.55;;;;;;;4.53;77.54;98556.13;4966844;28;20027;-69
2023/01/12 00:39:18;;;;;;;18.52;8.90;;;;;;;4.52;77.10;98559.09;4966234;28;20392;-70
2023/01/12 00:47:13;;;;;;;15.73;8.80;;;;;;;4.57;77.42;98562.69;4966461;28;20395;-71
2023/01/12 00:49:40;;;;;;;13.70;7.85;;;;;;;4.57;77.51;98570.84;4965799;28;20035;-71
2023/01/12 00:52:06;;;;;;;14.18;8.60;;;;;;;4.59;77.31;98578.75;4966109;28;20041;-70
2023/01/12 00:54:33;;;;;;;15.98;9.15;;;;;;;4.61;77.93;98580.13;4966870;28;21373;-70
2023/01/12 00:56:58;;;;;;;18.20;10.65;;;;;;;4.62;77.55;98583.66;4966485;28;20069;-71
2023/01/12 00:59:24;;;;;;;14.75;8.98;;;;;;;4.67;77.13;98580.19;4985319;28;20488;-70
2023/01/12 01:01:49;;;;;;;13.43;8.73;;;;;;;4.68;76.85;98565.53;4966938;28;20030;-70
2023/01/12 01:04:15;;;;;;;12.05;8.20;;;;;;;4.68;77.13;98573.66;4968664;28;20482;-70
2023/01/12 01:06:40;;;;;;;17.10;10.68;;;;;;;4.69;77.63;98584.28;4969895;28;20088;-70
2023/01/12 01:09:06;;;;;;;16.13;9.52;;;;;;;4.71;77.43;98584.84;4968662;28;20027;-71
2023/01/12 01:11:32;;;;;;;12.65;9.18;;;;;;;4.72;77.71;98586.47;4970699;28;20026;-70
2023/01/12 01:13:58;;;;;;;17.02;9.50;;;;;;;4.73;77.50;98590.03;4970494;28;20038;-71
2023/01/12 01:16:24;;;;;;;16.50;10.98;;;;;;;4.72;77.34;98591.09;4969257;28;20031;-71
2023/01/12 01:18:50;;;;;;;16.98;10.02;;;;;;;4.70;78.17;98583.19;4970110;28;20156;-71
2023/01/12 01:21:17;;;;;;;11.68;8.27;;;;;;;4.70;78.23;98588.63;4966039;28;20035;-71
2023/01/12 01:23:43;;;;;;;14.65;8.77;;;;;;;4.69;77.66;98589.72;4981624;28;20031;-71
2023/01/12 01:26:12;;;;;;;12.30;9.00;;;;;;;4.70;77.99;98590.53;4977892;28;20066;-71
2023/01/12 01:28:38;;;;;;;10.73;7.30;;;;;;;4.70;78.59;98595.97;4975520;28;20411;-71
2023/01/12 01:31:06;;;;;;;13.57;8.73;;;;;;;4.69;77.64;98586.19;5003920;28;20077;-70
2023/01/12 01:33:32;;;;;;;12.07;8.43;;;;;;;4.70;78.11;98593.25;4989346;28;20032;-70
2023/01/12 01:35:58;;;;;;;12.65;8.27;;;;;;;4.69;78.32;98594.34;5008153;28;20025;-71
2023/01/12 01:38:24;;;;;;;14.10;8.65;;;;;;;4.66;77.96;98587.53;4989200;28;20152;-70
2023/01/12 01:40:49;;;;;;;14.38;8.50;;;;;;;4.66;78.50;98590.25;5037177;28;20021;-71
2023/01/12 01:43:17;;;;;;;13.27;8.80;;;;;;;4.67;77.92;98591.88;4970793;28;20023;-71
2023/01/12 01:45:44;;;;;;;12.10;7.72;;;;;;;4.67;78.94;98580.19;4969801;28;20023;-70
2023/01/12 01:48:13;;;;;;;10.60;6.97;;;;;;;4.65;78.32;98594.03;4968653;28;20030;-71
2023/01/12 01:50:41;;;;;;;11.05;7.35;;;;;;;4.67;78.41;98574.75;4969899;28;20023;-70
2023/01/12 01:53:13;;;;;;;11.88;7.40;;;;;;;4.68;78.21;98598.97;4968220;28;20037;-71
2023/01/12 01:55:47;;;;;;;12.55;7.10;;;;;;;4.70;78.60;98594.06;4964453;28;20042;-70
2023/01/12 01:58:18;;;;;;;10.55;6.70;;;;;;;4.70;78.81;98591.34;4965318;28;20384;-69
2023/01/12 02:00:45;;;;;;;9.60;6.47;;;;;;;4.71;78.32;98579.41;4965986;28;20673;-70
2023/01/12 02:03:12;;;;;;;10.23;6.65;;;;;;;4.73;79.13;98590.03;4967044;28;20038;-69
2023/01/12 02:05:42;;;;;;;11.40;7.35;;;;;;;4.71;77.89;98601.16;4967001;28;20039;-69
2023/01/12 02:08:21;;;;;;;10.52;6.55;;;;;;;4.73;78.77;98609.06;4967571;28;20023;-70
2023/01/12 02:10:48;;;;;;;12.15;6.95;;;;;;;4.73;78.82;98604.44;4967676;28;20536;-69
2023/01/12 02:16:22;;;;;;;9.75;6.43;;;;;;;4.73;78.47;98601.72;4968417;28;20038;-69
2023/01/12 02:19:32;;;;;;;12.23;6.70;;;;;;;4.72;78.53;98593.81;4969907;28;20348;-69
2023/01/12 02:22:19;;;;;;;9.82;6.40;;;;;;;4.73;78.63;98593.56;4968975;28;20074;-69
2023/01/12 02:25:03;;;;;;;10.00;6.80;;;;;;;4.73;78.87;98609.06;4968939;28;20022;-69
2023/01/12 02:27:59;;;;;;;11.23;7.05;;;;;;;4.76;78.73;98613.97;4969070;28;20098;-69
2023/01/12 02:30:45;;;;;;;9.93;6.30;;;;;;;4.79;78.86;98618.06;4969757;28;20063;-69
2023/01/12 02:33:34;;;;;;;9.98;6.38;;;;;;;4.78;79.13;98603.69;4969686;28;20056;-69
2023/01/12 02:36:09;;;;;;;9.57;6.60;;;;;;;4.83;78.58;98614.63;4968409;28;20100;-69
2023/01/12 02:38:44;;;;;;;9.20;6.70;;;;;;;4.84;78.17;98609.97;4969083;28;20045;-70
2023/01/12 02:42:39;;;;;;;13.57;8.02;;;;;;;4.86;78.87;98599.69;4968143;28;20035;-69
2023/01/12 02:44:14;;;;;;;;;;;;;;;4.90;78.53;98608.97;4969127;28;20064;-68
2023/01/12 02:46:41;;;;;;;14.05;7.32;;;;;;;4.92;78.68;98607.63;4968862;28;19917;-70
2023/01/12 02:49:11;;;;;;;11.23;7.07;;;;;;;4.90;78.90;98612.50;4969218;28;20088;-69
2023/01/12 02:51:43;;;;;;;10.35;7.20;;;;;;;4.89;78.64;98608.13;4968958;28;20031;-69
2023/01/12 02:54:15;;;;;;;12.23;7.38;;;;;;;4.88;78.83;98602.97;4967675;28;20588;-69
2023/01/12 02:56:45;;;;;;;12.07;7.38;;;;;;;4.91;78.99;98605.97;4987582;28;20112;-69
2023/01/12 02:59:24;;;;;;;13.07;7.80;;;;;;;4.91;78.72;98607.91;4968504;28;20093;-70
2023/01/12 03:01:52;;;;;;;11.98;7.93;;;;;;;4.92;79.00;98607.63;4968902;28;20053;-69
2023/01/12 03:04:19;;;;;;;15.43;8.43;;;;;;;4.94;78.91;98610.09;4969657;28;20298;-69
2023/01/12 03:07:20;;;;;;;12.70;8.20;;;;;;;4.94;78.68;98614.69;4969727;28;20030;-69
2023/01/12 03:09:52;;;;;;;13.98;8.45;;;;;;;4.94;78.76;98620.97;4968511;28;20112;-70
2023/01/12 03:12:25;;;;;;;13.77;9.00;;;;;;;4.91;78.72;98614.13;4968177;28;20047;-69
2023/01/12 03:14:52;;;;;;;11.30;8.13;;;;;;;4.90;78.55;98620.66;4966345;28;20014;-70
2023/01/12 03:17:31;;;;;;;13.57;9.35;;;;;;;4.88;79.12;98617.38;4968185;28;20114;-69
2023/01/12 03:20:16;;;;;;;13.93;10.85;;;;;;;4.88;78.99;98622.00;4966910;28;20058;-69
2023/01/12 03:22:44;;;;;;;11.70;9.02;;;;;;;4.89;79.17;98619.00;4967659;28;20046;-70
2023/01/12 03:25:14;;;;;;;11.80;8.50;;;;;;;4.90;79.02;98622.56;4968154;28;20027;-70
2023/01/12 03:27:44;;;;;;;14.32;11.07;;;;;;;4.90;79.23;98620.66;4974484;28;20160;-71
2023/01/12 03:30:21;;;;;;;18.20;11.77;;;;;;;4.89;79.09;98615.47;4966828;28;20509;-69
2023/01/12 03:32:48;;;;;;;14.88;10.20;;;;;;;4.91;78.66;98622.28;4968064;28;20023;-69
2023/01/12 03:35:14;;;;;;;14.88;10.75;;;;;;;4.91;79.18;98618.75;4968483;28;20059;-70
2023/01/12 03:37:54;;;;;;;16.15;10.90;;;;;;;4.90;78.92;98611.69;4967761;28;20022;-69
2023/01/12 03:40:19;;;;;;;14.75;10.73;;;;;;;4.88;79.00;98608.41;4968096;28;20088;-70
2023/01/12 03:42:57;;;;;;;15.57;10.65;;;;;;;4.86;79.24;98621.41;4968227;28;20039;-69
2023/01/12 03:45:47;;;;;;;17.02;10.65;;;;;;;4.79;79.25;98618.91;4969360;28;20065;-69
2023/01/12 03:48:30;;;;;;;15.45;11.80;;;;;;;4.74;79.14;98616.94;4971141;28;20050;-69
2023/01/12 03:51:18;;;;;;;14.38;9.38;;;;;;;4.72;79.32;98610.13;4969647;28;20490;-69
2023/01/12 03:53:46;;;;;;;15.10;10.20;;;;;;;4.70;79.00;98613.09;4969455;28;20042;-69
2023/01/12 03:56:12;;;;;;;15.13;10.13;;;;;;;4.69;78.88;98613.34;4968155;28;20487;-70
2023/01/12 03:58:39;;;;;;;17.20;11.02;;;;;;;4.67;79.13;98613.63;4969478;28;20388;-69
2023/01/12 04:01:05;;;;;;;15.38;9.75;;;;;;;4.65;78.89;98607.63;4966284;28;20030;-69
2023/01/12 04:03:30;;;;;;;14.18;9.43;;;;;;;4.65;79.44;98623.91;4997107;28;20032;-70
2023/01/12 04:05:55;;;;;;;12.35;9.40;;;;;;;4.63;79.04;98609.75;5070742;28;20098;-69
2023/01/12 04:08:21;;;;;;;14.43;9.55;;;;;;;4.61;79.12;98609.19;5010962;28;20046;-69
2023/01/12 04:10:47;;;;;;;14.27;9.70;;;;;;;4.61;79.23;98620.06;4969355;28;20069;-69
2023/01/12 04:13:12;;;;;;;14.20;9.40;;;;;;;4.58;79.30;98620.56;4981502;28;20033;-69
2023/01/12 04:15:41;;;;;;;16.25;11.13;;;;;;;4.58;78.92;98624.09;5070573;28;20028;-69
2023/01/12 04:18:08;;;;;;;12.82;8.98;;;;;;;4.58;79.72;98621.38;5020198;28;20521;-69
2023/01/12 04:20:34;;;;;;;12.77;9.52;;;;;;;4.57;79.57;98632.50;4969274;28;20030;-69
2023/01/12 04:22:59;;;;;;;12.00;9.13;;;;;;;4.55;79.66;98629.22;4968371;28;20041;-70
2023/01/12 04:25:25;;;;;;;13.95;9.20;;;;;;;4.52;78.80;98625.09;4969312;28;20105;-69
2023/01/12 04:27:54;;;;;;;16.25;11.07;;;;;;;4.50;79.55;98624.53;4967029;28;20171;-70
2023/01/12 04:30:23;;;;;;;18.75;12.05;;;;;;;4.48;79.67;98615.84;4969578;28;20483;-70
2023/01/12 04:32:49;;;;;;;13.85;9.40;;;;;;;4.48;78.93;98621.25;4966279;28;20117;-70
2023/01/12 04:35:15;;;;;;;13.57;10.27;;;;;;;4.49;79.62;98625.59;4969117;28;20027;-69
2023/01/12 04:37:41;;;;;;;14.70;9.45;;;;;;;4.51;79.60;98637.03;4967853;28;20031;-69
2023/01/12 04:40:09;;;;;;;13.88;9.57;;;;;;;4.52;79.33;98635.16;4968152;28;20031;-69
2023/01/12 04:45:18;;;;;;;15.88;10.07;;;;;;;4.53;79.10;98634.06;4966459;28;20038;-70
2023/01/12 04:47:43;;;;;;;16.83;9.73;;;;;;;4.53;79.40;98634.06;5041157;28;20042;-69
2023/01/12 04:50:09;;;;;;;14.43;9.48;;;;;;;4.55;79.08;98631.94;4966314;28;20018;-70
2023/01/12 04:52:36;;;;;;;17.05;9.82;;;;;;;4.56;79.24;98636.28;4966304;28;20035;-70
2023/01/12 04:55:01;;;;;;;18.00;10.50;;;;;;;4.54;79.69;98635.72;4966353;28;20038;-69
2023/01/12 04:57:27;;;;;;;17.15;10.43;;;;;;;4.55;79.70;98640.88;4967033;28;20042;-69
2023/01/12 04:59:52;;;;;;;16.48;10.75;;;;;;;4.53;79.60;98648.47;4967819;28;20026;-70
2023/01/12 05:02:18;;;;;;;16.95;11.13;;;;;;;4.49;79.62;98654.66;4968488;28;20106;-69
2023/01/12 05:04:46;;;;;;;17.38;11.45;;;;;;;4.46;79.20;98651.38;4968587;28;20037;-70
2023/01/12 05:07:11;;;;;;;16.52;11.35;;;;;;;4.46;79.73;98643.22;4967956;28;20511;-69
2023/01/12 05:12:20;;;;;;;19.05;11.90;;;;;;;4.44;79.82;98634.50;4969021;28;20069;-70
2023/01/12 05:14:46;;;;;;;19.15;12.30;;;;;;;4.44;79.70;98644.56;4968558;28;20042;-70
2023/01/12 05:17:11;;;;;;;17.63;10.93;;;;;;;4.44;79.36;98644.56;4967847;28;20058;-69
2023/01/12 05:19:36;;;;;;;18.17;12.13;;;;;;;4.42;79.66;98652.94;4965935;28;20533;-69
2023/01/12 05:22:02;;;;;;;19.55;11.95;;;;;;;4.41;79.35;98643.16;4999063;28;20031;-69
2023/01/12 05:24:27;;;;;;;18.13;11.57;;;;;;;4.41;79.91;98639.63;5069950;28;20066;-69
2023/01/12 05:26:53;;;;;;;21.42;13.13;;;;;;;4.39;79.33;98641.78;5069066;28;20023;-69
2023/01/12 05:29:18;;;;;;;19.20;13.55;;;;;;;4.39;79.49;98658.06;4989575;28;20043;-69
2023/01/12 05:31:44;;;;;;;19.95;13.60;;;;;;;4.37;79.32;98650.16;4968411;28;20466;-70
2023/01/12 05:34:09;;;;;;;18.30;12.23;;;;;;;4.39;80.10;98656.16;5061146;28;20024;-69
2023/01/12 05:36:34;;;;;;;18.08;12.10;;;;;;;4.38;79.27;98651.81;5068877;28;20112;-70
2023/01/12 05:39:00;;;;;;;22.83;13.20;;;;;;;4.39;79.66;98655.34;5068312;28;20811;-69
2023/01/12 05:41:25;;;;;;;21.98;13.27;;;;;;;4.40;79.81;98660.53;5037877;28;20033;-70
2023/01/12 05:43:50;;;;;;;19.95;12.85;;;;;;;4.39;79.87;98663.50;4967858;28;20023;-69
2023/01/12 05:46:19;;;;;;;20.63;13.70;;;;;;;4.38;79.95;98659.94;4966641;28;20525;-70
2023/01/12 05:48:44;;;;;;;20.80;13.07;;;;;;;4.38;80.06;98662.66;4965897;28;20077;-70
2023/01/12 05:51:11;;;;;;;21.08;14.18;;;;;;;4.36;79.44;98658.56;5022029;28;20044;-69
2023/01/12 05:53:36;;;;;;;22.30;13.57;;;;;;;4.34;79.49;98658.00;5000870;28;20035;-69
2023/01/12 05:56:11;;;;;;;23.88;13.93;;;;;;;4.31;80.32;98665.56;4993603;28;20055;-69
2023/01/12 05:58:36;;;;;;;25.17;17.65;;;;;;;4.31;79.83;98672.88;4967227;28;20122;-69
2023/01/12 06:01:06;;;;;;;24.13;17.52;;;;;;;4.30;79.57;98663.94;4969059;28;20106;-69
2023/01/12 06:03:32;;;;;;;25.42;15.38;;;;;;;4.29;79.51;98669.59;4970209;28;20038;-69
2023/01/12 06:05:57;;;;;;;22.77;14.57;;;;;;;4.30;80.13;98671.25;5008080;28;20029;-69
2023/01/12 06:08:24;;;;;;;24.90;14.55;;;;;;;4.32;80.24;98663.66;4983177;28;20088;-69
2023/01/12 06:10:49;;;;;;;24.73;14.20;;;;;;;4.32;79.55;98652.81;4970669;28;20077;-69
2023/01/12 06:16:04;;;;;;;21.80;14.13;;;;;;;4.30;79.80;98661.22;4970718;28;20038;-69
2023/01/12 06:18:37;;;;;;;22.00;13.98;;;;;;;4.30;80.30;98661.22;5012844;28;20428;-69
2023/01/12 06:21:05;;;;;;;25.13;15.38;;;;;;;4.33;79.81;98659.88;5072349;28;20020;-70
2023/01/12 06:23:31;;;;;;;33.08;18.45;;;;;;;4.32;79.32;98660.94;5072890;28;20047;-70
2023/01/12 06:26:00;;;;;;;38.97;21.02;;;;;;;4.32;79.62;98664.50;4990237;28;20054;-70
2023/01/12 06:28:26;;;;;;;42.40;20.80;;;;;;;4.34;80.24;98666.94;5012213;28;20028;-68
2023/01/12 06:30:56;;;;;;;31.52;17.58;;;;;;;4.34;79.97;98668.88;5023464;28;20329;-69
2023/01/12 06:33:22;;;;;;;22.63;14.88;;;;;;;4.30;79.78;98676.66;4970707;28;20029;-69
2023/01/12 06:35:48;;;;;;;27.35;16.58;;;;;;;4.29;79.99;98680.44;4970857;28;20484;-69
2023/01/12 06:38:14;;;;;;;30.67;18.73;;;;;;;4.27;79.91;98674.47;4970186;28;20059;-69
2023/01/12 06:40:40;;;;;;;27.70;16.63;;;;;;;4.22;80.18;98672.50;4970132;28;20074;-70
2023/01/12 06:43:05;;;;;;;27.45;17.48;;;;;;;4.21;80.15;98679.00;4970095;28;20031;-69
2023/01/12 06:45:30;;;;;;;23.80;16.52;;;;;;;4.20;79.55;98676.53;4969231;28;20045;-69
2023/01/12 06:47:56;;;;;;;30.92;20.58;;;;;;;4.17;79.68;98672.41;4957512;28;20080;-70
2023/01/12 06:50:21;;;;;;;24.25;16.45;;;;;;;4.14;80.25;98678.34;4963084;28;20621;-69
2023/01/12 06:52:47;;;;;;;26.65;16.95;;;;;;;4.13;79.85;98685.69;4958353;28;20084;-70
2023/01/12 06:55:13;;;;;;;27.40;18.05;;;;;;;4.13;79.88;98687.56;4960218;28;20467;-70
2023/01/12 06:57:38;;;;;;;33.50;20.10;;;;;;;4.12;79.55;98686.75;4958475;28;20101;-70
2023/01/12 07:00:05;;;;;;;37.75;22.30;;;;;;;4.11;80.22;98682.38;4965287;28;20039;-70
2023/01/12 07:02:30;;;;;;;30.00;18.98;;;;;;;4.11;79.75;98673.41;4967944;28;20088;-69
2023/01/12 07:04:56;;;;;;;27.95;17.98;;;;;;;4.09;79.90;98665.53;4967514;28;20101;-68
2023/01/12 07:07:21;;;;;;;26.02;15.45;;;;;;;4.10;80.23;98678.03;4967899;28;20027;-69
2023/01/12 07:09:47;;;;;;;26.40;17.00;;;;;;;4.08;79.68;98669.31;5002357;28;20112;-69
2023/01/12 07:12:12;;;;;;;27.52;18.25;;;;;;;4.11;80.31;98678.84;5021677;28;20059;-68
2023/01/12 07:14:37;;;;;;;29.90;20.30;;;;;;;4.11;80.84;98676.13;5039891;28;20032;-69
2023/01/12 07:17:03;;;;;;;28.48;17.48;;;;;;;4.11;80.06;98689.69;4977194;28;20034;-68
2023/01/12 07:19:28;;;;;;;27.20;16.50;;;;;;;4.11;80.07;98681.53;5006633;28;20032;-68
2023/01/12 07:21:54;;;;;;;29.52;18.52;;;;;;;4.12;80.01;98684.03;4967583;28;20072;-67
2023/01/12 07:24:19;;;;;;;24.10;15.43;;;;;;;4.14;80.24;98679.19;4966552;28;20031;-68
2023/01/12 07:26:48;;;;;;;26.25;16.70;;;;;;;4.17;80.20;98677.84;4966884;28;20117;-67
2023/01/12 07:29:14;;;;;;;27.35;15.50;;;;;;;4.21;80.44;98676.28;4970131;28;20023;-69
2023/01/12 07:31:39;;;;;;;25.33;15.27;;;;;;;4.24;80.71;98669.53;4969423;28;20031;-67
2023/01/12 07:34:05;;;;;;;25.20;14.60;;;;;;;4.27;80.33;98669.03;4967469;28;20057;-67
2023/01/12 07:36:31;;;;;;;25.20;15.48;;;;;;;4.29;80.59;98675.03;4989694;28;20035;-66
2023/01/12 07:38:56;;;;;;;28.13;16.17;;;;;;;4.32;80.59;98680.78;4968936;28;20042;-67
2023/01/12 07:44:05;;;;;;;30.70;18.13;;;;;;;4.40;80.09;98674.09;4968861;28;20518;-67
2023/01/12 07:46:31;;;;;;;33.88;20.30;;;;;;;4.41;80.23;98670.31;4967775;28;20101;-67
2023/01/12 07:48:56;;;;;;;34.72;20.42;;;;;;;4.43;80.36;98676.31;4966806;28;20110;-66
2023/01/12 07:51:22;;;;;;;34.08;19.80;;;;;;;4.49;80.41;98679.09;4968481;28;20514;-67
2023/01/12 07:53:47;;;;;;;31.17;21.67;;;;;;;4.51;80.46;98683.22;4969036;28;20084;-69
2023/01/12 07:56:15;;;;;;;32.20;20.60;;;;;;;4.55;79.99;98673.47;4977293;28;20122;-68
2023/01/12 07:58:41;;;;;;;31.38;22.15;;;;;;;4.59;80.69;98673.81;4969019;28;20027;-69
2023/01/12 08:01:07;;;;;;;29.42;20.50;;;;;;;4.65;80.18;98688.28;4969746;28;20045;-67
2023/01/12 08:03:32;;;;;;;30.20;19.77;;;;;;;4.69;80.51;98689.44;4969270;28;20027;-67
2023/01/12 08:05:59;;;;;;;24.92;17.10;;;;;;;4.73;81.08;98690.56;4968758;28;20513;-68
2023/01/12 08:08:24;;;;;;;31.40;20.42;;;;;;;4.74;80.82;98682.16;4969351;28;20031;-68
2023/01/12 08:10:50;;;;;;;30.25;20.45;;;;;;;4.79;80.81;98680.56;4969962;28;20080;-69
2023/01/12 08:13:17;;;;;;;32.70;24.33;;;;;;;4.80;81.02;98679.50;4999843;28;20610;-69
2023/01/12 08:15:48;;;;;;;28.38;20.10;;;;;;;4.79;80.59;98684.13;4995138;28;20019;-69
2023/01/12 08:18:39;;;;;;;27.90;18.33;;;;;;;4.82;81.18;98683.63;5035220;28;20024;-69
2023/01/12 08:21:10;;;;;;;33.35;21.52;;;;;;;4.84;81.23;98684.19;4968137;28;20145;-68
2023/01/12 08:23:41;;;;;;;25.55;15.60;;;;;;;4.86;80.81;98686.66;5015944;28;20042;-67
2023/01/12 08:26:14;;;;;;;24.20;14.30;;;;;;;4.86;81.16;98687.47;4967328;28;20035;-69
2023/01/12 08:28:47;;;;;;;26.50;16.52;;;;;;;4.86;81.15;98678.50;4968557;28;20023;-68
2023/01/12 08:31:17;;;;;;;28.30;14.73;;;;;;;4.87;81.05;98689.13;4968773;28;20026;-67
2023/01/12 08:33:43;;;;;;;25.95;15.15;;;;;;;4.89;81.25;98684.22;5055018;28;20032;-68
2023/01/12 08:36:12;;;;;;;26.00;15.00;;;;;;;4.89;81.16;98688.84;4982825;28;20732;-68
2023/01/12 08:38:38;;;;;;;23.00;15.35;;;;;;;4.89;80.83;98689.66;5068737;28;20441;-68
2023/01/12 08:46:37;;;;;;;22.45;13.15;;;;;;;4.88;81.18;98692.66;4963834;28;20038;-70
2023/01/12 08:49:10;;;;;;;20.23;11.70;;;;;;;4.89;80.80;98699.72;4966781;28;20041;-71
2023/01/12 08:51:38;;;;;;;20.02;12.68;;;;;;;4.90;80.81;98701.38;4966964;28;20041;-65
2023/01/12 08:54:04;;;;;;;24.42;15.75;;;;;;;4.91;81.40;98695.66;4966102;28;20038;-69
2023/01/12 08:56:29;;;;;;;23.98;13.05;;;;;;;4.95;81.39;98706.03;4963711;28;20046;-68
2023/01/12 08:58:55;;;;;;;18.80;12.40;;;;;;;5.00;81.38;98697.94;4979158;28;20518;-70
2023/01/12 09:01:20;;;;;;;17.50;10.15;;;;;;;5.04;81.14;98707.25;4964906;28;20035;-71
2023/01/12 09:03:47;;;;;;;17.13;10.65;;;;;;;5.10;81.00;98708.13;4964268;28;20027;-71
2023/01/12 09:06:15;;;;;;;17.20;10.40;;;;;;;5.15;81.03;98710.91;4961371;28;20027;-71
2023/01/12 09:08:42;;;;;;;18.67;10.55;;;;;;;5.18;81.15;98707.69;4951353;28;20036;-71
2023/01/12 09:11:09;;;;;;;16.67;10.95;;;;;;;5.19;81.25;98702.00;4957105;28;20437;-73
2023/01/12 09:13:34;;;;;;;17.80;11.25;;;;;;;5.21;80.73;98701.72;4949472;28;20031;-73
2023/01/12 09:16:09;;;;;;;17.98;11.30;;;;;;;5.22;81.00;98701.50;4946391;28;20038;-73
2023/01/12 09:18:35;;;;;;;19.00;10.50;;;;;;;5.26;81.10;98690.91;4950572;28;20035;-72
2023/01/12 09:21:05;;;;;;;16.65;12.10;;;;;;;5.29;81.06;98695.03;4969913;28;20058;-69
2023/01/12 09:23:31;;;;;;;17.70;10.43;;;;;;;5.33;81.11;98688.81;4971496;28;20065;-69
2023/01/12 09:26:00;;;;;;;18.50;10.77;;;;;;;5.34;80.54;98687.75;5039682;28;20032;-70
2023/01/12 09:28:26;;;;;;;16.42;10.88;;;;;;;5.37;80.48;98675.50;5000811;28;20491;-71
2023/01/12 09:30:51;;;;;;;18.27;11.30;;;;;;;5.39;81.03;98664.38;4967533;28;20118;-71
2023/01/12 09:33:17;;;;;;;17.10;9.80;;;;;;;5.41;81.07;98671.19;4970361;28;20034;-71
2023/01/12 09:35:43;;;;;;;16.35;9.43;;;;;;;5.46;80.65;98673.16;5069501;28;20056;-71
2023/01/12 09:38:09;;;;;;;17.85;11.38;;;;;;;5.46;80.67;98673.16;5021844;28;20050;-71
2023/01/12 09:40:35;;;;;;;16.80;10.18;;;;;;;5.49;80.48;98669.94;4969873;28;20519;-71
2023/01/12 09:48:29;;;;;;;16.88;8.57;;;;;;;5.60;80.47;98663.50;4969987;28;20184;-71
2023/01/12 09:51:03;;;;;;;16.50;8.95;;;;;;;5.62;80.70;98658.63;4970124;28;20115;-72
2023/01/12 09:53:35;;;;;;;20.10;9.55;;;;;;;5.67;80.69;98663.28;4969966;28;20106;-72
2023/01/12 09:56:07;;;;;;;15.30;7.10;;;;;;;5.72;80.22;98663.31;4966756;28;20083;-71
2023/01/12 09:58:38;;;;;;;18.70;9.00;;;;;;;5.77;80.20;98657.13;4960924;28;20031;-71
2023/01/12 10:01:12;;;;;;;17.10;9.30;;;;;;;5.82;80.44;98657.16;5053045;28;20032;-71
2023/01/12 10:03:40;;;;;;;22.52;8.88;;;;;;;5.88;80.29;98658.84;5041094;28;20032;-71
2023/01/12 10:06:13;;;;;;;12.20;7.18;;;;;;;5.91;80.10;98661.00;5053527;28;20538;-71
2023/01/12 10:08:55;;;;;;;13.20;7.40;;;;;;;5.96;79.89;98661.06;4968242;28;20039;-69
2023/01/12 10:11:36;;;;;;;12.88;6.68;;;;;;;5.99;79.66;98650.72;4967769;28;20038;-69
2023/01/12 10:14:13;;;;;;;12.85;7.10;;;;;;;6.02;79.13;98636.63;5025872;28;20582;-70
2023/01/12 10:17:06;;;;;;;17.33;8.85;;;;;;;6.04;79.29;98631.75;5029137;28;20040;-70
2023/01/12 10:19:50;;;;;;;12.80;7.53;;;;;;;6.08;78.83;98639.13;4968053;28;20545;-70
2023/01/12 10:22:36;;;;;;;10.80;6.13;;;;;;;6.11;79.29;98633.13;4967721;28;20042;-70
2023/01/12 10:25:19;;;;;;;16.63;11.75;;;;;;;6.15;78.87;98629.91;4968560;28;20498;-69
2023/01/12 10:27:48;;;;;;;15.70;8.60;;;;;;;6.18;77.95;98632.09;4968959;28;20031;-69
2023/01/12 10:30:27;;;;;;;15.18;9.35;;;;;;;6.21;77.75;98635.13;4969045;28;20386;-68
2023/01/12 10:32:53;;;;;;;13.05;6.93;;;;;;;6.22;77.90;98630.50;4967326;28;20046;-68
2023/01/12 10:35:21;;;;;;;10.75;5.80;;;;;;;6.23;77.99;98634.84;4966893;28;20541;-69
2023/01/12 10:37:55;;;;;;;10.95;6.75;;;;;;;6.25;77.93;98630.81;4967866;28;20483;-68
2023/01/12 10:40:28;;;;;;;11.02;6.15;;;;;;;6.30;77.34;98630.00;4968943;28;20484;-66
2023/01/12 10:43:30;;;;;;;8.73;5.35;;;;;;;6.31;77.65;98628.91;5045766;28;20472;-66
2023/01/12 10:46:10;;;;;;;8.88;5.22;;;;;;;6.36;77.54;98619.94;5071033;28;20036;-66
2023/01/12 10:48:37;;;;;;;10.88;5.13;;;;;;;6.38;77.18;98620.50;5004862;28;20562;-67
2023/01/12 10:51:07;;;;;;;10.73;6.25;;;;;;;6.43;77.20;98628.69;4988312;28;20023;-67
2023/01/12 10:53:46;;;;;;;11.05;5.68;;;;;;;6.47;77.17;98623.56;5032142;28;20730;-65
2023/01/12 10:56:42;;;;;;;9.98;5.93;;;;;;;6.52;76.40;98616.22;4967276;28;20053;-66
2023/01/12 10:59:13;;;;;;;12.00;5.47;;;;;;;6.56;76.71;98624.66;4977327;28;20059;-66
2023/01/12 11:01:44;;;;;;;10.88;5.10;;;;;;;6.61;76.84;98618.44;4969135;28;20076;-67
2023/01/12 11:04:18;;;;;;;9.57;5.88;;;;;;;6.66;76.20;98615.75;4967776;28;20022;-67
2023/01/12 11:06:53;;;;;;;11.55;5.78;;;;;;;6.70;75.87;98620.38;4967318;28;20031;-67
2023/01/12 11:09:27;;;;;;;13.55;6.25;;;;;;;6.73;75.43;98608.09;4967912;28;20407;-68
2023/01/12 11:12:00;;;;;;;11.95;5.85;;;;;;;6.77;76.10;98603.75;4968269;28;20050;-67
2023/01/12 11:14:30;;;;;;;8.65;4.22;;;;;;;6.82;75.68;98606.50;4968898;28;20084;-67
2023/01/12 11:17:14;;;;;;;12.75;6.45;;;;;;;6.87;75.49;98589.38;4968182;28;20068;-67
2023/01/12 11:19:43;;;;;;;11.35;5.70;;;;;;;6.92;75.59;98594.84;4966725;28;20031;-68
2023/01/12 11:22:19;;;;;;;10.85;6.30;;;;;;;6.95;74.53;98580.63;4967927;28;20031;-68
2023/01/12 11:24:55;;;;;;;11.40;5.35;;;;;;;6.98;75.17;98585.56;4969086;28;20122;-67
2023/01/12 11:27:26;;;;;;;10.88;4.68;;;;;;;7.03;74.84;98568.41;4968644;28;20054;-66
2023/01/12 11:30:17;;;;;;;10.27;4.32;;;;;;;7.05;75.19;98574.41;4968946;28;20068;-67
2023/01/12 11:32:55;;;;;;;9.82;4.57;;;;;;;7.13;74.66;98573.84;4968816;28;20049;-67
2023/01/12 11:35:30;;;;;;;8.63;5.05;;;;;;;7.17;74.40;98576.03;4969032;28;20388;-66
2023/01/12 11:37:59;;;;;;;9.57;4.45;;;;;;;7.19;73.04;98566.50;4968704;28;20659;-67
2023/01/12 11:40:31;;;;;;;9.90;5.15;;;;;;;7.20;73.79;98559.97;4968409;28;20034;-67
2023/01/12 11:45:57;;;;;;;10.98;5.18;;;;;;;7.29;73.62;98555.63;5069604;28;20050;-67
2023/01/12 11:48:42;;;;;;;9.30;4.78;;;;;;;7.32;73.23;98551.50;5067996;28;20097;-67
2023/01/12 11:51:11;;;;;;;8.82;4.65;;;;;;;7.37;73.21;98545.22;5070328;28;20029;-67
2023/01/12 11:53:37;;;;;;;9.77;4.93;;;;;;;7.38;72.93;98550.44;5069932;28;20021;-69
2023/01/12 11:56:40;;;;;;;8.52;4.93;;;;;;;7.39;73.34;98545.78;5069295;28;20056;-70
2023/01/12 11:59:11;;;;;;;9.68;4.47;;;;;;;7.43;72.84;98531.31;5069350;28;20103;-70
2023/01/12 12:01:39;;;;;;;9.90;5.05;;;;;;;7.47;72.77;98530.78;5069450;28;20086;-69
2023/01/12 12:04:23;;;;;;;8.25;3.30;;;;;;;7.52;72.84;98539.78;5049019;28;20037;-71
2023/01/12 12:07:08;;;;;;;7.13;3.50;;;;;;;7.58;72.86;98535.13;5055834;28;20036;-69
2023/01/12 12:10:30;;;;;;;9.52;4.50;;;;;;;7.62;72.53;98530.75;5070050;28;20025;-70
2023/01/12 12:13:19;;;;;;;8.48;4.43;;;;;;;7.67;73.04;98519.03;4987944;28;20038;-70
2023/01/12 12:15:54;;;;;;;8.75;3.95;;;;;;;7.72;72.50;98516.28;4923029;28;20036;-70
2023/01/12 12:18:26;;;;;;;9.90;4.00;;;;;;;7.77;73.04;98518.97;4960852;28;20109;-70
2023/01/12 12:21:14;;;;;;;8.25;4.60;;;;;;;7.82;71.99;98515.44;4968844;28;20031;-69
2023/01/12 12:23:56;;;;;;;10.60;5.38;;;;;;;7.85;72.19;98521.16;4969047;28;20031;-69